sensor_id;sensor_type;location;lat;lon;timestamp;P1;durP1;ratioP1;P2;durP2;ratioP2
62050;SDS011;48008;51.204;6.766;2023-05-21T00:10:35;28.10;;;13.05;;
62050;SDS011;48008;51.204;6.766;2023-05-21T00:17:20;24.98;;;12.35;;
62050;SDS011;48008;51.204;6.766;2023-05-21T00:24:06;23.83;;;12.57;;
62050;SDS011;48008;51.204;6.766;2023-05-21T00:30:50;21.75;;;12.18;;
62050;SDS011;48008;51.204;6.766;2023-05-21T00:37:36;22.90;;;11.60;;
62050;SDS011;48008;51.204;6.766;2023-05-21T00:44:21;21.17;;;11.55;;
62050;SDS011;48008;51.204;6.766;2023-05-21T00:51:07;20.27;;;11.65;;
62050;SDS011;48008;51.204;6.766;2023-05-21T01:02:11;24.35;;;12.30;;
62050;SDS011;48008;51.204;6.766;2023-05-21T01:08:58;22.33;;;12.65;;
62050;SDS011;48008;51.204;6.766;2023-05-21T01:15:43;24.83;;;13.45;;
62050;SDS011;48008;51.204;6.766;2023-05-21T01:31:04;26.05;;;13.43;;
62050;SDS011;48008;51.204;6.766;2023-05-21T01:46:37;26.05;;;13.90;;
62050;SDS011;48008;51.204;6.766;2023-05-21T01:53:23;27.17;;;13.63;;
62050;SDS011;48008;51.204;6.766;2023-05-21T02:00:19;25.00;;;13.82;;
62050;SDS011;48008;51.204;6.766;2023-05-21T02:07:06;26.45;;;13.32;;
62050;SDS011;48008;51.204;6.766;2023-05-21T02:22:10;22.77;;;11.27;;
62050;SDS011;48008;51.204;6.766;2023-05-21T02:28:56;22.02;;;12.18;;
62050;SDS011;48008;51.204;6.766;2023-05-21T02:39:59;20.15;;;11.20;;
62050;SDS011;48008;51.204;6.766;2023-05-21T02:46:46;19.60;;;10.48;;
62050;SDS011;48008;51.204;6.766;2023-05-21T02:53:33;20.08;;;11.00;;
62050;SDS011;48008;51.204;6.766;2023-05-21T03:00:19;18.65;;;11.10;;
62050;SDS011;48008;51.204;6.766;2023-05-21T03:07:04;21.50;;;10.50;;
62050;SDS011;48008;51.204;6.766;2023-05-21T03:13:49;18.00;;;9.75;;
62050;SDS011;48008;51.204;6.766;2023-05-21T03:20:34;19.33;;;10.35;;
62050;SDS011;48008;51.204;6.766;2023-05-21T03:27:20;18.83;;;10.52;;
62050;SDS011;48008;51.204;6.766;2023-05-21T03:34:05;17.73;;;10.35;;
62050;SDS011;48008;51.204;6.766;2023-05-21T03:45:10;20.75;;;10.55;;
62050;SDS011;48008;51.204;6.766;2023-05-21T03:56:39;22.77;;;10.55;;
62050;SDS011;48008;51.204;6.766;2023-05-21T04:07:43;18.80;;;10.07;;
62050;SDS011;48008;51.204;6.766;2023-05-21T04:14:30;22.80;;;10.35;;
62050;SDS011;48008;51.204;6.766;2023-05-21T04:21:15;19.23;;;10.10;;
62050;SDS011;48008;51.204;6.766;2023-05-21T04:28:00;21.10;;;10.50;;
62050;SDS011;48008;51.204;6.766;2023-05-21T04:34:46;18.50;;;10.10;;
62050;SDS011;48008;51.204;6.766;2023-05-21T04:41:31;21.15;;;10.20;;
62050;SDS011;48008;51.204;6.766;2023-05-21T04:48:16;15.75;;;9.60;;
62050;SDS011;48008;51.204;6.766;2023-05-21T04:55:03;18.00;;;9.88;;
62050;SDS011;48008;51.204;6.766;2023-05-21T05:06:07;23.27;;;10.43;;
62050;SDS011;48008;51.204;6.766;2023-05-21T05:12:52;19.45;;;10.40;;
62050;SDS011;48008;51.204;6.766;2023-05-21T05:19:37;20.40;;;10.23;;
62050;SDS011;48008;51.204;6.766;2023-05-21T05:55:45;25.63;;;10.70;;
62050;SDS011;48008;51.204;6.766;2023-05-21T06:06:50;23.08;;;11.25;;
62050;SDS011;48008;51.204;6.766;2023-05-21T06:13:36;23.95;;;10.93;;
62050;SDS011;48008;51.204;6.766;2023-05-21T06:20:22;23.52;;;11.02;;
62050;SDS011;48008;51.204;6.766;2023-05-21T06:27:08;19.95;;;11.18;;
62050;SDS011;48008;51.204;6.766;2023-05-21T06:33:53;19.25;;;11.57;;
62050;SDS011;48008;51.204;6.766;2023-05-21T06:40:39;19.42;;;11.63;;
62050;SDS011;48008;51.204;6.766;2023-05-21T06:47:31;21.35;;;11.55;;
62050;SDS011;48008;51.204;6.766;2023-05-21T06:54:16;18.77;;;11.52;;
62050;SDS011;48008;51.204;6.766;2023-05-21T07:01:01;20.33;;;11.82;;
62050;SDS011;48008;51.204;6.766;2023-05-21T07:07:47;20.45;;;12.18;;
62050;SDS011;48008;51.204;6.766;2023-05-21T07:14:32;21.75;;;12.88;;
62050;SDS011;48008;51.204;6.766;2023-05-21T07:21:17;22.30;;;12.30;;
62050;SDS011;48008;51.204;6.766;2023-05-21T07:40:46;20.45;;;12.18;;
62050;SDS011;48008;51.204;6.766;2023-05-21T07:47:32;19.23;;;11.93;;
62050;SDS011;48008;51.204;6.766;2023-05-21T07:54:17;20.90;;;12.52;;
62050;SDS011;48008;51.204;6.766;2023-05-21T07:58:49;20.92;;;12.57;;
62050;SDS011;48008;51.204;6.766;2023-05-21T08:09:52;23.00;;;12.52;;
62050;SDS011;48008;51.204;6.766;2023-05-21T08:16:38;23.10;;;12.55;;
62050;SDS011;48008;51.204;6.766;2023-05-21T08:27:24;24.88;;;13.00;;
62050;SDS011;48008;51.204;6.766;2023-05-21T08:37:59;25.65;;;12.40;;
62050;SDS011;48008;51.204;6.766;2023-05-21T08:44:53;22.60;;;12.73;;
62050;SDS011;48008;51.204;6.766;2023-05-21T08:51:24;24.02;;;13.40;;
62050;SDS011;48008;51.204;6.766;2023-05-21T08:58:10;23.67;;;12.95;;
62050;SDS011;48008;51.204;6.766;2023-05-21T09:13:35;22.80;;;13.13;;
62050;SDS011;48008;51.204;6.766;2023-05-21T09:20:28;32.55;;;14.05;;
62050;SDS011;48008;51.204;6.766;2023-05-21T09:27:17;21.83;;;14.18;;
62050;SDS011;48008;51.204;6.766;2023-05-21T09:34:03;27.95;;;14.52;;
62050;SDS011;48008;51.204;6.766;2023-05-21T09:40:49;29.20;;;13.07;;
62050;SDS011;48008;51.204;6.766;2023-05-21T09:47:42;23.17;;;13.70;;
62050;SDS011;48008;51.204;6.766;2023-05-21T09:52:06;28.58;;;14.65;;
62050;SDS011;48008;51.204;6.766;2023-05-21T09:58:52;25.20;;;15.18;;
62050;SDS011;48008;51.204;6.766;2023-05-21T10:09:56;25.92;;;14.05;;
62050;SDS011;48008;51.204;6.766;2023-05-21T10:20:43;25.77;;;15.15;;
62050;SDS011;48008;51.204;6.766;2023-05-21T10:31:29;23.38;;;15.45;;
62050;SDS011;48008;51.204;6.766;2023-05-21T10:38:17;27.02;;;16.40;;
62050;SDS011;48008;51.204;6.766;2023-05-21T10:45:12;28.80;;;17.40;;
62050;SDS011;48008;51.204;6.766;2023-05-21T10:56:21;26.98;;;15.77;;
62050;SDS011;48008;51.204;6.766;2023-05-21T11:03:11;29.70;;;17.27;;
62050;SDS011;48008;51.204;6.766;2023-05-21T11:14:26;26.75;;;15.23;;
62050;SDS011;48008;51.204;6.766;2023-05-21T11:25:37;29.10;;;17.38;;
62050;SDS011;48008;51.204;6.766;2023-05-21T11:32:23;29.48;;;17.63;;
62050;SDS011;48008;51.204;6.766;2023-05-21T11:39:10;27.40;;;15.48;;
62050;SDS011;48008;51.204;6.766;2023-05-21T11:45:57;32.13;;;17.65;;
62050;SDS011;48008;51.204;6.766;2023-05-21T11:52:43;30.10;;;17.10;;
